createdAt,value
2022-11-20T19:11:00.621Z,47.18
2022-11-20T19:13:27.004Z,44.61
2022-11-20T19:15:53.378Z,45.52
2022-11-20T19:18:19.758Z,44.33
2022-11-20T19:20:46.149Z,44.52
2022-11-20T19:23:12.553Z,43.16
2022-11-20T19:25:38.999Z,42.44
2022-11-20T19:28:05.386Z,41.21
2022-11-20T19:30:31.785Z,40.17
2022-11-20T19:32:58.167Z,39.84
2022-11-20T19:35:24.575Z,40.48
2022-11-20T19:37:50.955Z,39.89
2022-11-20T19:40:17.321Z,39.09
2022-11-20T19:42:43.718Z,38.10
2022-11-20T19:45:10.112Z,37.06
2022-11-20T19:48:06.058Z,36.64
2022-11-20T19:50:22.863Z,36.82
2022-11-20T19:52:51.104Z,36.23
2022-11-20T19:55:20.783Z,34.73
2022-11-20T19:57:47.170Z,33.88
2022-11-20T20:00:15.597Z,33.39
2022-11-20T20:02:44.727Z,33.32
2022-11-20T20:05:11.105Z,32.28
2022-11-20T20:07:37.498Z,31.73
2022-11-20T20:10:03.905Z,31.64
2022-11-20T20:12:30.274Z,29.43
2022-11-20T20:14:56.667Z,29.66
2022-11-20T20:17:23.049Z,28.11
2022-11-20T20:19:49.505Z,26.73
2022-11-20T20:22:15.884Z,26.80
2022-11-20T20:24:42.273Z,25.99
2022-11-20T20:27:08.675Z,25.50
2022-11-20T20:29:35.075Z,25.12
2022-11-20T20:32:01.438Z,24.28
2022-11-20T20:34:27.811Z,23.57
2022-11-20T20:36:54.209Z,22.82
2022-11-20T20:39:20.779Z,22.78
2022-11-20T20:41:47.437Z,21.87
2022-11-20T20:44:13.833Z,21.93
2022-11-20T20:46:40.232Z,21.18
2022-11-20T20:49:06.612Z,21.06
2022-11-20T20:51:32.984Z,20.80
2022-11-20T20:53:59.379Z,20.92
2022-11-20T20:56:25.788Z,20.50
2022-11-20T20:58:52.175Z,20.20
2022-11-20T21:01:18.646Z,20.02
2022-11-20T21:03:45.082Z,19.80
2022-11-20T21:06:11.450Z,19.66
2022-11-20T21:08:40.328Z,18.81
2022-11-20T21:11:07.347Z,18.09
2022-11-20T21:13:33.733Z,18.06
2022-11-20T21:16:00.122Z,17.66
2022-11-20T21:18:26.501Z,17.79
2022-11-20T21:20:52.873Z,17.73
2022-11-20T21:23:19.267Z,16.98
2022-11-20T21:25:45.639Z,17.14
2022-11-20T21:28:16.808Z,16.88
2022-11-20T21:30:44.603Z,16.44
2022-11-20T21:33:10.985Z,16.80
2022-11-20T21:35:37.371Z,16.47
2022-11-20T21:38:03.777Z,15.89
2022-11-20T21:40:30.144Z,15.93
2022-11-20T21:42:56.528Z,15.57
2022-11-20T21:45:22.921Z,16.05
2022-11-20T21:47:49.298Z,15.10
2022-11-20T21:50:15.683Z,14.75
2022-11-20T21:52:42.071Z,14.41
2022-11-20T21:55:08.466Z,14.45
2022-11-20T21:57:34.848Z,13.91
2022-11-20T22:00:01.234Z,13.91
2022-11-20T22:02:27.618Z,13.78
2022-11-20T22:04:53.995Z,13.48
2022-11-20T22:07:20.408Z,13.11
2022-11-20T22:09:46.913Z,12.74
2022-11-20T22:12:13.285Z,12.48
2022-11-20T22:14:39.642Z,12.18
2022-11-20T22:17:06.007Z,12.02
2022-11-20T22:19:32.388Z,11.73
2022-11-20T22:21:58.746Z,11.18
2022-11-20T22:24:25.423Z,11.53
2022-11-20T22:26:52.113Z,11.47
2022-11-20T22:29:18.508Z,11.28
2022-11-20T22:31:44.878Z,11.38
2022-11-20T22:34:11.242Z,11.49
2022-11-20T22:36:37.704Z,11.00
2022-11-20T22:39:04.065Z,10.91
2022-11-20T22:41:30.450Z,10.69
2022-11-20T22:43:56.855Z,10.77
2022-11-20T22:46:23.241Z,9.90
2022-11-20T22:48:49.636Z,9.76
2022-11-20T22:51:16.034Z,10.05
2022-11-20T22:53:42.409Z,10.20
2022-11-20T22:56:08.770Z,9.82
2022-11-20T22:58:35.135Z,10.04
2022-11-20T23:01:01.518Z,9.92
2022-11-20T23:03:27.934Z,9.44
2022-11-20T23:05:54.306Z,9.62
2022-11-20T23:08:20.671Z,9.64
2022-11-20T23:10:47.063Z,9.78
2022-11-20T23:13:13.433Z,9.28
2022-11-20T23:15:39.805Z,9.54
2022-11-20T23:18:06.189Z,9.58
2022-11-20T23:20:32.569Z,8.80
2022-11-20T23:22:58.941Z,9.00
2022-11-20T23:25:25.300Z,8.85
2022-11-20T23:27:51.700Z,8.90
2022-11-20T23:30:18.062Z,8.83
2022-11-20T23:32:44.418Z,8.16
2022-11-20T23:35:10.797Z,8.77
2022-11-20T23:37:37.163Z,8.55
2022-11-20T23:40:03.628Z,8.31
2022-11-20T23:42:30.017Z,8.29
2022-11-20T23:44:56.409Z,8.16
2022-11-20T23:47:22.790Z,7.97
2022-11-20T23:49:49.279Z,7.65
2022-11-20T23:52:15.638Z,7.93
2022-11-20T23:54:42.005Z,8.17
2022-11-20T23:57:08.374Z,7.70
2022-11-20T23:59:34.758Z,7.74
